sensor_id;sensor_type;location;lat;lon;timestamp;P1;durP1;ratioP1;P2;durP2;ratioP2
53875;SDS011;39789;53.216;5.624;2023-07-31T00:00:46;8.35;;;2.28;;
53875;SDS011;39789;53.216;5.624;2023-07-31T00:03:12;8.85;;;2.50;;
53875;SDS011;39789;53.216;5.624;2023-07-31T00:05:37;7.97;;;2.25;;
53875;SDS011;39789;53.216;5.624;2023-07-31T00:08:03;10.18;;;2.30;;
53875;SDS011;39789;53.216;5.624;2023-07-31T00:10:29;10.65;;;2.17;;
53875;SDS011;39789;53.216;5.624;2023-07-31T00:12:54;4.28;;;1.65;;
53875;SDS011;39789;53.216;5.624;2023-07-31T00:15:20;5.50;;;2.53;;
53875;SDS011;39789;53.216;5.624;2023-07-31T00:17:46;5.57;;;1.88;;
53875;SDS011;39789;53.216;5.624;2023-07-31T00:20:12;6.30;;;2.60;;
53875;SDS011;39789;53.216;5.624;2023-07-31T00:22:38;6.78;;;1.80;;
53875;SDS011;39789;53.216;5.624;2023-07-31T00:25:04;7.05;;;1.85;;
53875;SDS011;39789;53.216;5.624;2023-07-31T00:27:31;5.53;;;1.98;;
53875;SDS011;39789;53.216;5.624;2023-07-31T00:29:57;6.53;;;2.13;;
53875;SDS011;39789;53.216;5.624;2023-07-31T00:32:23;7.90;;;2.08;;
53875;SDS011;39789;53.216;5.624;2023-07-31T00:34:48;4.90;;;1.77;;
53875;SDS011;39789;53.216;5.624;2023-07-31T00:37:14;4.20;;;1.65;;
53875;SDS011;39789;53.216;5.624;2023-07-31T00:39:40;7.60;;;1.95;;
53875;SDS011;39789;53.216;5.624;2023-07-31T00:42:06;5.05;;;1.90;;
53875;SDS011;39789;53.216;5.624;2023-07-31T00:44:32;6.65;;;2.10;;
53875;SDS011;39789;53.216;5.624;2023-07-31T00:46:57;4.18;;;2.38;;
53875;SDS011;39789;53.216;5.624;2023-07-31T00:49:24;7.28;;;2.17;;
53875;SDS011;39789;53.216;5.624;2023-07-31T00:51:50;5.45;;;2.00;;
53875;SDS011;39789;53.216;5.624;2023-07-31T00:54:16;6.28;;;2.47;;
53875;SDS011;39789;53.216;5.624;2023-07-31T00:56:42;9.05;;;2.63;;
53875;SDS011;39789;53.216;5.624;2023-07-31T00:59:10;5.25;;;2.00;;
53875;SDS011;39789;53.216;5.624;2023-07-31T01:01:36;9.27;;;2.45;;
53875;SDS011;39789;53.216;5.624;2023-07-31T01:04:02;5.25;;;1.90;;
53875;SDS011;39789;53.216;5.624;2023-07-31T01:12:36;6.60;;;2.67;;
53875;SDS011;39789;53.216;5.624;2023-07-31T01:15:04;9.48;;;2.72;;
53875;SDS011;39789;53.216;5.624;2023-07-31T01:17:37;6.55;;;2.53;;
53875;SDS011;39789;53.216;5.624;2023-07-31T01:20:04;4.75;;;2.20;;
53875;SDS011;39789;53.216;5.624;2023-07-31T01:28:20;9.05;;;2.17;;
53875;SDS011;39789;53.216;5.624;2023-07-31T01:30:51;4.40;;;2.20;;
53875;SDS011;39789;53.216;5.624;2023-07-31T01:33:20;5.63;;;1.95;;
53875;SDS011;39789;53.216;5.624;2023-07-31T01:35:46;9.05;;;2.20;;
53875;SDS011;39789;53.216;5.624;2023-07-31T01:38:13;6.15;;;2.20;;
53875;SDS011;39789;53.216;5.624;2023-07-31T01:40:41;5.22;;;1.85;;
53875;SDS011;39789;53.216;5.624;2023-07-31T01:43:07;7.68;;;2.53;;
53875;SDS011;39789;53.216;5.624;2023-07-31T01:45:33;6.75;;;2.47;;
53875;SDS011;39789;53.216;5.624;2023-07-31T01:47:58;9.43;;;2.05;;
53875;SDS011;39789;53.216;5.624;2023-07-31T01:50:24;9.98;;;2.40;;
53875;SDS011;39789;53.216;5.624;2023-07-31T01:52:50;7.13;;;1.95;;
53875;SDS011;39789;53.216;5.624;2023-07-31T01:55:15;5.68;;;1.90;;
53875;SDS011;39789;53.216;5.624;2023-07-31T01:57:41;8.60;;;1.95;;
53875;SDS011;39789;53.216;5.624;2023-07-31T02:00:07;5.88;;;1.77;;
53875;SDS011;39789;53.216;5.624;2023-07-31T02:02:33;7.38;;;1.88;;
53875;SDS011;39789;53.216;5.624;2023-07-31T02:05:00;8.45;;;2.58;;
53875;SDS011;39789;53.216;5.624;2023-07-31T02:07:25;7.45;;;2.22;;
53875;SDS011;39789;53.216;5.624;2023-07-31T02:09:51;7.10;;;1.88;;
53875;SDS011;39789;53.216;5.624;2023-07-31T02:12:17;5.25;;;1.65;;
53875;SDS011;39789;53.216;5.624;2023-07-31T02:14:42;5.25;;;2.22;;
53875;SDS011;39789;53.216;5.624;2023-07-31T02:17:08;4.40;;;1.70;;
53875;SDS011;39789;53.216;5.624;2023-07-31T02:19:34;5.18;;;1.67;;
53875;SDS011;39789;53.216;5.624;2023-07-31T02:21:59;13.95;;;2.80;;
53875;SDS011;39789;53.216;5.624;2023-07-31T02:24:25;5.97;;;1.73;;
53875;SDS011;39789;53.216;5.624;2023-07-31T02:26:50;3.92;;;1.90;;
53875;SDS011;39789;53.216;5.624;2023-07-31T02:29:16;8.00;;;1.98;;
53875;SDS011;39789;53.216;5.624;2023-07-31T02:31:41;6.05;;;2.08;;
53875;SDS011;39789;53.216;5.624;2023-07-31T02:34:07;5.78;;;2.45;;
53875;SDS011;39789;53.216;5.624;2023-07-31T02:36:32;8.48;;;2.10;;
53875;SDS011;39789;53.216;5.624;2023-07-31T02:38:58;7.78;;;1.90;;
53875;SDS011;39789;53.216;5.624;2023-07-31T02:41:24;3.88;;;1.90;;
53875;SDS011;39789;53.216;5.624;2023-07-31T02:43:49;4.82;;;1.67;;
53875;SDS011;39789;53.216;5.624;2023-07-31T02:46:15;14.23;;;2.10;;
53875;SDS011;39789;53.216;5.624;2023-07-31T02:48:40;3.03;;;1.58;;
53875;SDS011;39789;53.216;5.624;2023-07-31T02:51:06;5.50;;;2.00;;
53875;SDS011;39789;53.216;5.624;2023-07-31T02:53:32;3.20;;;1.58;;
53875;SDS011;39789;53.216;5.624;2023-07-31T02:55:57;6.65;;;2.00;;
53875;SDS011;39789;53.216;5.624;2023-07-31T02:58:23;2.15;;;1.55;;
53875;SDS011;39789;53.216;5.624;2023-07-31T03:00:48;3.75;;;1.50;;
53875;SDS011;39789;53.216;5.624;2023-07-31T03:03:14;2.63;;;1.20;;
53875;SDS011;39789;53.216;5.624;2023-07-31T03:05:40;2.22;;;1.45;;
53875;SDS011;39789;53.216;5.624;2023-07-31T03:08:05;2.92;;;1.13;;
53875;SDS011;39789;53.216;5.624;2023-07-31T03:10:31;1.45;;;1.00;;
53875;SDS011;39789;53.216;5.624;2023-07-31T03:12:56;4.35;;;0.90;;
53875;SDS011;39789;53.216;5.624;2023-07-31T03:15:22;2.08;;;0.88;;
53875;SDS011;39789;53.216;5.624;2023-07-31T03:17:48;2.47;;;0.90;;
53875;SDS011;39789;53.216;5.624;2023-07-31T03:20:13;3.90;;;0.75;;
53875;SDS011;39789;53.216;5.624;2023-07-31T03:22:39;1.33;;;0.90;;
53875;SDS011;39789;53.216;5.624;2023-07-31T03:25:05;11.30;;;0.95;;
53875;SDS011;39789;53.216;5.624;2023-07-31T03:27:31;3.30;;;1.05;;
53875;SDS011;39789;53.216;5.624;2023-07-31T03:29:56;0.73;;;0.70;;
53875;SDS011;39789;53.216;5.624;2023-07-31T03:32:22;3.25;;;0.88;;
53875;SDS011;39789;53.216;5.624;2023-07-31T03:34:47;2.10;;;1.00;;
53875;SDS011;39789;53.216;5.624;2023-07-31T03:37:14;1.02;;;0.82;;
53875;SDS011;39789;53.216;5.624;2023-07-31T03:39:39;3.90;;;1.50;;
53875;SDS011;39789;53.216;5.624;2023-07-31T03:42:05;2.22;;;1.60;;
53875;SDS011;39789;53.216;5.624;2023-07-31T03:44:31;2.47;;;1.40;;
53875;SDS011;39789;53.216;5.624;2023-07-31T03:46:56;4.10;;;1.85;;
53875;SDS011;39789;53.216;5.624;2023-07-31T03:49:22;8.57;;;2.20;;
53875;SDS011;39789;53.216;5.624;2023-07-31T03:51:48;7.45;;;2.53;;
53875;SDS011;39789;53.216;5.624;2023-07-31T03:54:14;9.60;;;3.25;;
53875;SDS011;39789;53.216;5.624;2023-07-31T03:56:40;10.38;;;3.25;;
53875;SDS011;39789;53.216;5.624;2023-07-31T03:59:06;11.00;;;4.30;;
53875;SDS011;39789;53.216;5.624;2023-07-31T04:01:31;14.07;;;3.60;;
53875;SDS011;39789;53.216;5.624;2023-07-31T04:03:57;12.77;;;3.60;;
53875;SDS011;39789;53.216;5.624;2023-07-31T04:06:22;11.30;;;4.60;;
53875;SDS011;39789;53.216;5.624;2023-07-31T04:08:48;15.70;;;4.43;;
53875;SDS011;39789;53.216;5.624;2023-07-31T04:11:14;11.25;;;5.03;;
53875;SDS011;39789;53.216;5.624;2023-07-31T04:13:40;15.90;;;5.18;;
53875;SDS011;39789;53.216;5.624;2023-07-31T04:16:05;12.18;;;4.38;;
53875;SDS011;39789;53.216;5.624;2023-07-31T04:18:31;7.10;;;3.60;;
53875;SDS011;39789;53.216;5.624;2023-07-31T04:20:57;12.73;;;4.90;;
53875;SDS011;39789;53.216;5.624;2023-07-31T04:23:23;12.80;;;4.32;;
53875;SDS011;39789;53.216;5.624;2023-07-31T04:25:50;8.82;;;4.13;;
53875;SDS011;39789;53.216;5.624;2023-07-31T04:28:15;13.13;;;4.78;;
53875;SDS011;39789;53.216;5.624;2023-07-31T04:30:41;18.02;;;5.72;;
53875;SDS011;39789;53.216;5.624;2023-07-31T04:33:06;14.35;;;5.50;;
53875;SDS011;39789;53.216;5.624;2023-07-31T04:35:32;11.70;;;4.78;;
53875;SDS011;39789;53.216;5.624;2023-07-31T04:37:58;12.50;;;5.32;;
53875;SDS011;39789;53.216;5.624;2023-07-31T04:40:23;11.75;;;4.05;;
53875;SDS011;39789;53.216;5.624;2023-07-31T04:42:49;12.93;;;4.35;;
53875;SDS011;39789;53.216;5.624;2023-07-31T04:45:14;17.88;;;5.15;;
53875;SDS011;39789;53.216;5.624;2023-07-31T04:47:40;14.93;;;5.00;;
53875;SDS011;39789;53.216;5.624;2023-07-31T04:50:06;18.58;;;5.63;;
53875;SDS011;39789;53.216;5.624;2023-07-31T04:52:32;15.48;;;5.35;;
53875;SDS011;39789;53.216;5.624;2023-07-31T04:55:00;18.02;;;5.35;;
53875;SDS011;39789;53.216;5.624;2023-07-31T04:57:26;15.88;;;5.43;;
53875;SDS011;39789;53.216;5.624;2023-07-31T04:59:51;24.95;;;7.07;;
53875;SDS011;39789;53.216;5.624;2023-07-31T05:02:17;21.77;;;7.30;;
53875;SDS011;39789;53.216;5.624;2023-07-31T05:04:43;20.48;;;6.20;;
53875;SDS011;39789;53.216;5.624;2023-07-31T05:07:08;22.48;;;6.70;;
53875;SDS011;39789;53.216;5.624;2023-07-31T05:09:34;19.08;;;6.60;;
53875;SDS011;39789;53.216;5.624;2023-07-31T05:11:59;18.70;;;7.65;;
53875;SDS011;39789;53.216;5.624;2023-07-31T05:14:25;15.35;;;5.70;;
53875;SDS011;39789;53.216;5.624;2023-07-31T05:16:51;22.10;;;6.78;;
53875;SDS011;39789;53.216;5.624;2023-07-31T05:19:17;15.55;;;5.75;;
53875;SDS011;39789;53.216;5.624;2023-07-31T05:21:43;13.77;;;4.63;;
53875;SDS011;39789;53.216;5.624;2023-07-31T05:24:08;12.57;;;5.05;;
53875;SDS011;39789;53.216;5.624;2023-07-31T05:26:34;18.48;;;5.47;;
53875;SDS011;39789;53.216;5.624;2023-07-31T05:29:00;16.33;;;5.82;;
53875;SDS011;39789;53.216;5.624;2023-07-31T05:31:25;10.63;;;3.88;;
53875;SDS011;39789;53.216;5.624;2023-07-31T05:33:51;12.43;;;4.63;;
53875;SDS011;39789;53.216;5.624;2023-07-31T05:36:17;14.65;;;4.38;;
53875;SDS011;39789;53.216;5.624;2023-07-31T05:38:43;15.10;;;4.57;;
53875;SDS011;39789;53.216;5.624;2023-07-31T05:41:11;11.02;;;4.82;;
53875;SDS011;39789;53.216;5.624;2023-07-31T05:43:37;15.73;;;4.47;;
53875;SDS011;39789;53.216;5.624;2023-07-31T05:46:03;14.00;;;5.25;;
53875;SDS011;39789;53.216;5.624;2023-07-31T05:48:28;10.18;;;4.93;;
53875;SDS011;39789;53.216;5.624;2023-07-31T05:50:54;12.07;;;4.50;;
53875;SDS011;39789;53.216;5.624;2023-07-31T05:53:20;8.63;;;3.60;;
53875;SDS011;39789;53.216;5.624;2023-07-31T05:55:45;12.80;;;4.28;;
53875;SDS011;39789;53.216;5.624;2023-07-31T05:58:11;11.88;;;4.47;;
53875;SDS011;39789;53.216;5.624;2023-07-31T06:00:37;20.73;;;4.15;;
53875;SDS011;39789;53.216;5.624;2023-07-31T06:03:02;6.60;;;2.83;;
53875;SDS011;39789;53.216;5.624;2023-07-31T06:05:29;7.50;;;3.00;;
53875;SDS011;39789;53.216;5.624;2023-07-31T06:07:55;11.13;;;3.78;;
53875;SDS011;39789;53.216;5.624;2023-07-31T06:10:21;5.28;;;3.00;;
53875;SDS011;39789;53.216;5.624;2023-07-31T06:12:46;9.70;;;3.30;;
53875;SDS011;39789;53.216;5.624;2023-07-31T06:15:12;10.43;;;3.63;;
53875;SDS011;39789;53.216;5.624;2023-07-31T06:17:38;10.32;;;4.20;;
53875;SDS011;39789;53.216;5.624;2023-07-31T06:20:03;11.23;;;3.17;;
53875;SDS011;39789;53.216;5.624;2023-07-31T06:22:31;13.00;;;3.50;;
53875;SDS011;39789;53.216;5.624;2023-07-31T06:24:56;12.73;;;3.30;;
53875;SDS011;39789;53.216;5.624;2023-07-31T06:27:23;10.00;;;3.72;;
53875;SDS011;39789;53.216;5.624;2023-07-31T06:29:48;10.30;;;4.00;;
53875;SDS011;39789;53.216;5.624;2023-07-31T06:32:14;8.10;;;3.45;;
53875;SDS011;39789;53.216;5.624;2023-07-31T06:34:40;9.77;;;3.40;;
53875;SDS011;39789;53.216;5.624;2023-07-31T06:37:05;8.43;;;3.63;;
53875;SDS011;39789;53.216;5.624;2023-07-31T06:39:31;17.38;;;4.20;;
53875;SDS011;39789;53.216;5.624;2023-07-31T06:41:57;7.13;;;2.08;;
53875;SDS011;39789;53.216;5.624;2023-07-31T06:44:22;5.03;;;1.98;;
53875;SDS011;39789;53.216;5.624;2023-07-31T06:46:48;4.88;;;1.88;;
53875;SDS011;39789;53.216;5.624;2023-07-31T06:49:13;4.03;;;2.28;;
53875;SDS011;39789;53.216;5.624;2023-07-31T06:51:42;5.57;;;2.22;;
53875;SDS011;39789;53.216;5.624;2023-07-31T06:54:09;9.25;;;2.20;;
53875;SDS011;39789;53.216;5.624;2023-07-31T06:56:34;6.40;;;2.28;;
53875;SDS011;39789;53.216;5.624;2023-07-31T06:59:00;7.00;;;2.67;;
53875;SDS011;39789;53.216;5.624;2023-07-31T07:01:26;6.22;;;2.63;;
53875;SDS011;39789;53.216;5.624;2023-07-31T07:03:52;4.68;;;2.10;;
53875;SDS011;39789;53.216;5.624;2023-07-31T07:06:18;5.35;;;2.00;;
53875;SDS011;39789;53.216;5.624;2023-07-31T07:08:44;4.68;;;2.13;;
53875;SDS011;39789;53.216;5.624;2023-07-31T07:11:09;4.97;;;1.95;;
53875;SDS011;39789;53.216;5.624;2023-07-31T07:13:35;4.32;;;1.73;;
53875;SDS011;39789;53.216;5.624;2023-07-31T07:16:01;2.40;;;1.48;;
53875;SDS011;39789;53.216;5.624;2023-07-31T07:18:27;2.60;;;1.25;;
53875;SDS011;39789;53.216;5.624;2023-07-31T07:20:55;3.17;;;1.33;;
53875;SDS011;39789;53.216;5.624;2023-07-31T07:23:23;1.50;;;1.40;;
53875;SDS011;39789;53.216;5.624;2023-07-31T07:25:48;7.40;;;2.13;;
53875;SDS011;39789;53.216;5.624;2023-07-31T07:28:14;2.05;;;1.40;;
53875;SDS011;39789;53.216;5.624;2023-07-31T07:30:40;1.98;;;1.17;;
53875;SDS011;39789;53.216;5.624;2023-07-31T07:33:06;1.98;;;1.30;;
53875;SDS011;39789;53.216;5.624;2023-07-31T07:35:34;2.67;;;1.00;;
53875;SDS011;39789;53.216;5.624;2023-07-31T07:38:01;2.42;;;0.93;;
53875;SDS011;39789;53.216;5.624;2023-07-31T07:40:27;1.90;;;0.77;;
53875;SDS011;39789;53.216;5.624;2023-07-31T07:42:53;1.75;;;1.00;;
53875;SDS011;39789;53.216;5.624;2023-07-31T07:45:19;2.90;;;1.15;;
53875;SDS011;39789;53.216;5.624;2023-07-31T07:47:44;6.70;;;1.58;;
53875;SDS011;39789;53.216;5.624;2023-07-31T07:50:10;5.28;;;1.95;;
53875;SDS011;39789;53.216;5.624;2023-07-31T07:52:36;4.88;;;1.50;;
53875;SDS011;39789;53.216;5.624;2023-07-31T07:55:01;5.15;;;1.30;;
53875;SDS011;39789;53.216;5.624;2023-07-31T07:57:28;4.88;;;1.10;;
53875;SDS011;39789;53.216;5.624;2023-07-31T07:59:54;8.57;;;1.65;;
53875;SDS011;39789;53.216;5.624;2023-07-31T08:02:20;5.40;;;1.30;;
53875;SDS011;39789;53.216;5.624;2023-07-31T08:04:45;5.47;;;2.58;;
53875;SDS011;39789;53.216;5.624;2023-07-31T08:07:11;3.15;;;1.15;;
53875;SDS011;39789;53.216;5.624;2023-07-31T08:09:40;2.92;;;1.20;;
53875;SDS011;39789;53.216;5.624;2023-07-31T08:12:08;4.50;;;1.52;;
53875;SDS011;39789;53.216;5.624;2023-07-31T08:14:34;2.08;;;1.08;;
53875;SDS011;39789;53.216;5.624;2023-07-31T08:17:01;5.60;;;1.20;;
53875;SDS011;39789;53.216;5.624;2023-07-31T08:19:27;4.03;;;1.33;;
53875;SDS011;39789;53.216;5.624;2023-07-31T08:21:53;6.70;;;1.40;;
53875;SDS011;39789;53.216;5.624;2023-07-31T08:24:19;2.05;;;1.20;;
53875;SDS011;39789;53.216;5.624;2023-07-31T08:26:45;4.65;;;1.30;;
53875;SDS011;39789;53.216;5.624;2023-07-31T08:29:11;5.07;;;1.55;;
53875;SDS011;39789;53.216;5.624;2023-07-31T08:31:37;7.85;;;1.42;;
53875;SDS011;39789;53.216;5.624;2023-07-31T08:34:03;4.00;;;1.35;;
53875;SDS011;39789;53.216;5.624;2023-07-31T08:36:28;2.90;;;1.20;;
53875;SDS011;39789;53.216;5.624;2023-07-31T08:38:57;4.90;;;1.65;;
53875;SDS011;39789;53.216;5.624;2023-07-31T08:41:22;3.35;;;1.20;;
53875;SDS011;39789;53.216;5.624;2023-07-31T08:43:51;4.22;;;1.65;;
53875;SDS011;39789;53.216;5.624;2023-07-31T08:46:21;3.40;;;0.82;;
53875;SDS011;39789;53.216;5.624;2023-07-31T08:48:47;4.05;;;1.25;;
53875;SDS011;39789;53.216;5.624;2023-07-31T08:51:16;1.75;;;1.45;;
53875;SDS011;39789;53.216;5.624;2023-07-31T08:53:42;2.90;;;0.88;;
53875;SDS011;39789;53.216;5.624;2023-07-31T08:56:07;2.83;;;1.10;;
53875;SDS011;39789;53.216;5.624;2023-07-31T08:58:34;1.00;;;0.75;;
53875;SDS011;39789;53.216;5.624;2023-07-31T09:01:03;1.13;;;0.90;;
53875;SDS011;39789;53.216;5.624;2023-07-31T09:03:30;2.10;;;1.00;;
53875;SDS011;39789;53.216;5.624;2023-07-31T09:05:59;1.83;;;1.00;;
53875;SDS011;39789;53.216;5.624;2023-07-31T09:08:25;1.67;;;1.30;;
53875;SDS011;39789;53.216;5.624;2023-07-31T09:10:58;3.20;;;0.77;;
53875;SDS011;39789;53.216;5.624;2023-07-31T09:13:29;2.40;;;0.63;;
53875;SDS011;39789;53.216;5.624;2023-07-31T09:15:56;1.40;;;0.60;;
53875;SDS011;39789;53.216;5.624;2023-07-31T09:18:21;3.75;;;0.95;;
53875;SDS011;39789;53.216;5.624;2023-07-31T09:21:03;2.08;;;1.02;;
53875;SDS011;39789;53.216;5.624;2023-07-31T09:23:42;2.25;;;1.05;;
53875;SDS011;39789;53.216;5.624;2023-07-31T09:26:09;1.73;;;0.75;;
53875;SDS011;39789;53.216;5.624;2023-07-31T09:28:35;1.00;;;0.60;;
53875;SDS011;39789;53.216;5.624;2023-07-31T09:31:02;1.60;;;0.88;;
53875;SDS011;39789;53.216;5.624;2023-07-31T09:33:27;2.03;;;1.10;;
53875;SDS011;39789;53.216;5.624;2023-07-31T09:35:53;2.67;;;1.10;;
53875;SDS011;39789;53.216;5.624;2023-07-31T09:38:18;2.50;;;1.02;;
53875;SDS011;39789;53.216;5.624;2023-07-31T09:40:45;2.17;;;0.75;;
53875;SDS011;39789;53.216;5.624;2023-07-31T09:43:13;1.77;;;1.00;;
53875;SDS011;39789;53.216;5.624;2023-07-31T09:45:42;1.08;;;0.80;;
53875;SDS011;39789;53.216;5.624;2023-07-31T09:48:08;4.43;;;1.25;;
53875;SDS011;39789;53.216;5.624;2023-07-31T09:50:38;4.53;;;1.73;;
53875;SDS011;39789;53.216;5.624;2023-07-31T09:53:09;25.95;;;2.42;;
53875;SDS011;39789;53.216;5.624;2023-07-31T09:55:35;4.63;;;1.80;;
53875;SDS011;39789;53.216;5.624;2023-07-31T09:58:06;5.80;;;2.08;;
53875;SDS011;39789;53.216;5.624;2023-07-31T10:00:33;2.88;;;0.95;;
53875;SDS011;39789;53.216;5.624;2023-07-31T10:03:00;2.58;;;1.30;;
53875;SDS011;39789;53.216;5.624;2023-07-31T10:05:39;2.88;;;1.40;;
53875;SDS011;39789;53.216;5.624;2023-07-31T10:08:09;4.03;;;1.30;;
53875;SDS011;39789;53.216;5.624;2023-07-31T10:10:41;3.45;;;1.40;;
53875;SDS011;39789;53.216;5.624;2023-07-31T10:13:11;6.68;;;1.60;;
53875;SDS011;39789;53.216;5.624;2023-07-31T10:15:37;3.50;;;1.55;;
53875;SDS011;39789;53.216;5.624;2023-07-31T10:18:05;4.22;;;1.90;;
53875;SDS011;39789;53.216;5.624;2023-07-31T10:20:32;3.20;;;1.83;;
53875;SDS011;39789;53.216;5.624;2023-07-31T10:22:58;12.65;;;2.83;;
53875;SDS011;39789;53.216;5.624;2023-07-31T10:25:26;7.57;;;2.10;;
53875;SDS011;39789;53.216;5.624;2023-07-31T10:27:52;4.78;;;1.50;;
53875;SDS011;39789;53.216;5.624;2023-07-31T10:30:20;7.82;;;2.17;;
53875;SDS011;39789;53.216;5.624;2023-07-31T10:32:50;5.78;;;2.17;;
53875;SDS011;39789;53.216;5.624;2023-07-31T10:35:17;5.03;;;1.98;;
53875;SDS011;39789;53.216;5.624;2023-07-31T10:37:43;7.55;;;1.98;;
53875;SDS011;39789;53.216;5.624;2023-07-31T10:40:10;5.43;;;1.92;;
53875;SDS011;39789;53.216;5.624;2023-07-31T10:42:48;5.25;;;1.67;;
53875;SDS011;39789;53.216;5.624;2023-07-31T10:45:25;3.80;;;1.60;;
53875;SDS011;39789;53.216;5.624;2023-07-31T10:48:05;4.05;;;1.55;;
53875;SDS011;39789;53.216;5.624;2023-07-31T10:50:40;8.50;;;1.80;;
53875;SDS011;39789;53.216;5.624;2023-07-31T10:55:59;6.70;;;2.60;;
53875;SDS011;39789;53.216;5.624;2023-07-31T10:58:26;7.47;;;1.90;;
53875;SDS011;39789;53.216;5.624;2023-07-31T11:00:55;10.10;;;2.33;;
53875;SDS011;39789;53.216;5.624;2023-07-31T11:03:24;6.95;;;2.22;;
53875;SDS011;39789;53.216;5.624;2023-07-31T11:06:00;4.13;;;2.35;;
53875;SDS011;39789;53.216;5.624;2023-07-31T11:08:35;6.57;;;2.20;;
53875;SDS011;39789;53.216;5.624;2023-07-31T11:11:07;4.05;;;1.90;;
53875;SDS011;39789;53.216;5.624;2023-07-31T11:16:18;5.68;;;1.90;;
53875;SDS011;39789;53.216;5.624;2023-07-31T11:18:45;6.88;;;2.47;;
53875;SDS011;39789;53.216;5.624;2023-07-31T11:21:17;5.50;;;1.50;;
53875;SDS011;39789;53.216;5.624;2023-07-31T11:23:54;2.58;;;1.50;;
53875;SDS011;39789;53.216;5.624;2023-07-31T11:26:22;3.38;;;1.27;;
53875;SDS011;39789;53.216;5.624;2023-07-31T11:28:49;4.10;;;1.30;;
53875;SDS011;39789;53.216;5.624;2023-07-31T11:31:15;3.55;;;1.27;;
53875;SDS011;39789;53.216;5.624;2023-07-31T11:33:42;5.55;;;1.63;;
53875;SDS011;39789;53.216;5.624;2023-07-31T11:36:18;3.88;;;1.70;;
53875;SDS011;39789;53.216;5.624;2023-07-31T11:38:44;7.43;;;1.73;;
53875;SDS011;39789;53.216;5.624;2023-07-31T11:41:13;6.70;;;2.10;;
53875;SDS011;39789;53.216;5.624;2023-07-31T11:43:40;8.10;;;2.45;;
53875;SDS011;39789;53.216;5.624;2023-07-31T11:46:05;4.38;;;2.53;;
53875;SDS011;39789;53.216;5.624;2023-07-31T11:48:32;6.75;;;2.65;;
53875;SDS011;39789;53.216;5.624;2023-07-31T11:51:02;7.07;;;2.40;;
53875;SDS011;39789;53.216;5.624;2023-07-31T11:53:33;10.95;;;2.95;;
53875;SDS011;39789;53.216;5.624;2023-07-31T11:55:59;5.80;;;2.53;;
53875;SDS011;39789;53.216;5.624;2023-07-31T11:58:27;6.85;;;2.85;;
53875;SDS011;39789;53.216;5.624;2023-07-31T12:00:54;11.10;;;3.17;;
53875;SDS011;39789;53.216;5.624;2023-07-31T12:03:20;14.23;;;2.85;;
53875;SDS011;39789;53.216;5.624;2023-07-31T12:05:49;7.43;;;2.35;;
53875;SDS011;39789;53.216;5.624;2023-07-31T12:08:15;7.78;;;2.58;;
53875;SDS011;39789;53.216;5.624;2023-07-31T12:10:41;9.25;;;2.95;;
53875;SDS011;39789;53.216;5.624;2023-07-31T12:13:10;10.75;;;2.58;;
53875;SDS011;39789;53.216;5.624;2023-07-31T12:15:44;14.55;;;3.97;;
53875;SDS011;39789;53.216;5.624;2023-07-31T12:18:14;12.10;;;3.33;;
53875;SDS011;39789;53.216;5.624;2023-07-31T12:20:47;10.13;;;3.05;;
53875;SDS011;39789;53.216;5.624;2023-07-31T12:23:22;5.60;;;2.25;;
53875;SDS011;39789;53.216;5.624;2023-07-31T12:26:06;7.45;;;2.90;;
53875;SDS011;39789;53.216;5.624;2023-07-31T12:28:42;8.05;;;2.97;;
53875;SDS011;39789;53.216;5.624;2023-07-31T12:31:12;13.43;;;3.67;;
53875;SDS011;39789;53.216;5.624;2023-07-31T12:33:39;9.55;;;3.03;;
53875;SDS011;39789;53.216;5.624;2023-07-31T12:36:12;9.35;;;2.95;;
53875;SDS011;39789;53.216;5.624;2023-07-31T12:38:40;13.98;;;3.53;;
53875;SDS011;39789;53.216;5.624;2023-07-31T12:41:06;9.13;;;3.13;;
53875;SDS011;39789;53.216;5.624;2023-07-31T12:43:36;10.45;;;2.50;;
53875;SDS011;39789;53.216;5.624;2023-07-31T12:46:02;12.60;;;3.75;;
53875;SDS011;39789;53.216;5.624;2023-07-31T12:48:31;11.63;;;3.45;;
53875;SDS011;39789;53.216;5.624;2023-07-31T12:50:57;11.52;;;3.15;;
53875;SDS011;39789;53.216;5.624;2023-07-31T12:53:22;7.43;;;2.75;;
53875;SDS011;39789;53.216;5.624;2023-07-31T12:55:48;9.90;;;2.85;;
53875;SDS011;39789;53.216;5.624;2023-07-31T12:58:14;8.48;;;3.30;;
53875;SDS011;39789;53.216;5.624;2023-07-31T13:00:39;8.57;;;2.70;;
53875;SDS011;39789;53.216;5.624;2023-07-31T13:03:05;10.65;;;3.08;;
53875;SDS011;39789;53.216;5.624;2023-07-31T13:05:31;9.15;;;2.70;;
53875;SDS011;39789;53.216;5.624;2023-07-31T13:07:56;8.82;;;2.58;;
53875;SDS011;39789;53.216;5.624;2023-07-31T13:10:22;9.18;;;2.75;;
53875;SDS011;39789;53.216;5.624;2023-07-31T13:12:49;11.27;;;2.70;;
53875;SDS011;39789;53.216;5.624;2023-07-31T13:15:21;10.02;;;3.13;;
53875;SDS011;39789;53.216;5.624;2023-07-31T13:17:49;7.90;;;3.35;;
53875;SDS011;39789;53.216;5.624;2023-07-31T13:20:14;11.40;;;4.07;;
53875;SDS011;39789;53.216;5.624;2023-07-31T13:22:40;11.02;;;3.00;;
53875;SDS011;39789;53.216;5.624;2023-07-31T13:25:06;8.52;;;3.30;;
53875;SDS011;39789;53.216;5.624;2023-07-31T13:27:32;9.70;;;3.08;;
53875;SDS011;39789;53.216;5.624;2023-07-31T13:29:57;7.80;;;3.00;;
53875;SDS011;39789;53.216;5.624;2023-07-31T13:32:23;7.03;;;3.17;;
53875;SDS011;39789;53.216;5.624;2023-07-31T13:34:49;13.27;;;2.85;;
53875;SDS011;39789;53.216;5.624;2023-07-31T13:37:18;7.38;;;2.40;;
53875;SDS011;39789;53.216;5.624;2023-07-31T13:39:43;7.70;;;2.78;;
53875;SDS011;39789;53.216;5.624;2023-07-31T13:42:09;18.40;;;3.75;;
53875;SDS011;39789;53.216;5.624;2023-07-31T13:44:37;11.40;;;2.90;;
53875;SDS011;39789;53.216;5.624;2023-07-31T13:47:03;15.18;;;3.33;;
53875;SDS011;39789;53.216;5.624;2023-07-31T13:49:29;8.20;;;3.10;;
53875;SDS011;39789;53.216;5.624;2023-07-31T13:51:55;10.35;;;3.30;;
53875;SDS011;39789;53.216;5.624;2023-07-31T13:54:24;15.05;;;4.10;;
53875;SDS011;39789;53.216;5.624;2023-07-31T13:56:50;11.88;;;3.92;;
53875;SDS011;39789;53.216;5.624;2023-07-31T13:59:17;11.00;;;3.60;;
53875;SDS011;39789;53.216;5.624;2023-07-31T14:01:43;14.20;;;4.05;;
53875;SDS011;39789;53.216;5.624;2023-07-31T14:04:09;10.30;;;3.85;;
53875;SDS011;39789;53.216;5.624;2023-07-31T14:06:34;11.68;;;3.47;;
53875;SDS011;39789;53.216;5.624;2023-07-31T14:09:00;14.32;;;3.95;;
53875;SDS011;39789;53.216;5.624;2023-07-31T14:11:27;9.57;;;3.83;;
53875;SDS011;39789;53.216;5.624;2023-07-31T14:13:53;11.95;;;4.55;;
53875;SDS011;39789;53.216;5.624;2023-07-31T14:16:19;12.35;;;3.63;;
53875;SDS011;39789;53.216;5.624;2023-07-31T14:18:44;11.95;;;3.75;;
53875;SDS011;39789;53.216;5.624;2023-07-31T14:21:13;16.90;;;3.72;;
53875;SDS011;39789;53.216;5.624;2023-07-31T14:23:38;10.63;;;3.30;;
53875;SDS011;39789;53.216;5.624;2023-07-31T14:26:04;10.07;;;3.20;;
53875;SDS011;39789;53.216;5.624;2023-07-31T14:28:33;8.95;;;3.30;;
53875;SDS011;39789;53.216;5.624;2023-07-31T14:30:59;12.23;;;3.00;;
53875;SDS011;39789;53.216;5.624;2023-07-31T14:33:24;13.73;;;3.38;;
53875;SDS011;39789;53.216;5.624;2023-07-31T14:35:50;12.32;;;3.35;;
53875;SDS011;39789;53.216;5.624;2023-07-31T14:38:16;11.07;;;2.95;;
53875;SDS011;39789;53.216;5.624;2023-07-31T14:40:41;15.90;;;4.10;;
53875;SDS011;39789;53.216;5.624;2023-07-31T14:43:07;12.45;;;3.85;;
53875;SDS011;39789;53.216;5.624;2023-07-31T14:45:33;12.80;;;3.25;;
53875;SDS011;39789;53.216;5.624;2023-07-31T14:47:59;8.75;;;2.88;;
53875;SDS011;39789;53.216;5.624;2023-07-31T14:50:25;14.65;;;3.97;;
53875;SDS011;39789;53.216;5.624;2023-07-31T14:52:50;10.45;;;3.60;;
53875;SDS011;39789;53.216;5.624;2023-07-31T14:55:16;10.55;;;3.30;;
53875;SDS011;39789;53.216;5.624;2023-07-31T14:57:42;10.32;;;2.70;;